Time;durP1;ratioP1;P1;durP2;ratioP2;P2;SDS_P1;SDS_P2;PMS_P1;PMS_P2;Temp;Humidity;BMP_temperature;BMP_pressure;BME280_temperature;BME280_humidity;BME280_pressure;Samples;Min_cycle;Max_cycle;Signal;HPM_P1;HPM_P2
2023/02/04 00:01:13;;;;;;;12.30;7.72;;;7.10;99.90;;;6.11;100.00;98580.88;5059406;28;20455;-72
2023/02/04 00:03:38;;;;;;;9.67;6.97;;;7.10;99.90;;;6.12;100.00;98579.88;5057936;28;20477;-71
2023/02/04 00:06:05;;;;;;;10.57;7.17;;;7.10;99.90;;;6.02;100.00;98571.53;5058093;28;20428;-71
2023/02/04 00:08:31;;;;;;;11.27;7.73;;;7.10;99.90;;;6.01;100.00;98556.78;5059298;28;20888;-72
2023/02/04 00:10:57;;;;;;;12.95;6.57;;;7.00;99.90;;;5.93;100.00;98562.19;5057695;28;20407;-72
2023/02/04 00:13:24;;;;;;;10.00;6.50;;;7.00;99.90;;;6.02;100.00;98547.88;5059889;28;20409;-72
2023/02/04 00:15:50;;;;;;;9.73;6.85;;;6.90;99.90;;;5.92;100.00;98545.59;5057227;28;20439;-72
2023/02/04 00:18:16;;;;;;;10.18;6.55;;;7.00;99.90;;;6.04;100.00;98545.88;5059170;28;20410;-72
2023/02/04 00:20:42;;;;;;;9.80;5.65;;;7.00;99.90;;;5.92;100.00;98558.75;5058258;28;20467;-72
2023/02/04 00:23:07;;;;;;;7.37;5.67;;;7.00;99.90;;;5.95;100.00;98557.53;5057496;28;20992;-72
2023/02/04 00:25:33;;;;;;;7.30;5.40;;;6.90;99.90;;;5.85;100.00;98557.88;5059438;28;20403;-72
2023/02/04 00:27:59;;;;;;;8.20;6.05;;;6.90;99.90;;;6.05;100.00;98563.25;5058239;28;20914;-72
2023/02/04 00:30:26;;;;;;;7.28;4.95;;;7.00;99.90;;;5.91;100.00;98562.38;5057971;28;20434;-72
2023/02/04 00:32:53;;;;;;;8.57;5.82;;;7.00;99.90;;;5.95;100.00;98586.44;5059059;28;20431;-72
2023/02/04 00:35:19;;;;;;;8.30;5.65;;;7.00;99.90;;;6.10;100.00;98572.19;5058214;28;20398;-72
2023/02/04 00:37:45;;;;;;;7.73;5.23;;;7.10;99.90;;;5.92;100.00;98566.63;5061115;28;20490;-72
2023/02/04 00:40:12;;;;;;;7.28;4.95;;;7.00;99.90;;;5.95;100.00;98581.19;5060822;28;20419;-72
2023/02/04 00:42:38;;;;;;;8.27;5.28;;;7.00;99.90;;;5.95;100.00;98578.56;5060674;28;20487;-73
2023/02/04 00:45:04;;;;;;;8.30;4.50;;;7.00;99.90;;;5.88;100.00;98578.50;5066695;28;20403;-72
2023/02/04 00:47:32;;;;;;;8.85;5.15;;;7.00;99.90;;;5.87;100.00;98590.00;5062725;28;20407;-73
2023/02/04 00:49:57;;;;;;;9.93;5.53;;;6.90;99.90;;;5.87;100.00;98590.00;5057641;28;20402;-72
2023/02/04 00:52:23;;;;;;;7.65;4.97;;;6.90;99.90;;;6.07;100.00;98593.63;5061186;28;20433;-72
2023/02/04 00:54:49;;;;;;;7.90;5.72;;;7.00;99.90;;;6.08;100.00;98600.50;5062922;28;20411;-72
2023/02/04 00:57:15;;;;;;;7.40;5.53;;;7.00;99.90;;;5.99;100.00;98585.06;5062570;28;20966;-71
2023/02/04 00:59:41;;;;;;;8.37;4.80;;;7.10;99.90;;;6.02;100.00;98596.00;5061360;28;20437;-71
2023/02/04 01:02:07;;;;;;;8.88;5.70;;;7.10;99.90;;;6.06;100.00;98601.69;5064040;28;20405;-74
2023/02/04 01:04:34;;;;;;;7.55;5.90;;;7.10;99.90;;;5.97;100.00;98593.13;5052758;28;20417;-74
2023/02/04 01:07:00;;;;;;;9.10;5.80;;;7.10;99.90;;;5.88;100.00;98596.91;5061096;28;20401;-74
2023/02/04 01:09:26;;;;;;;10.35;6.38;;;7.00;99.90;;;5.88;100.00;98589.03;5061036;28;20411;-74
2023/02/04 01:11:52;;;;;;;12.23;6.83;;;6.90;99.90;;;5.84;100.00;98603.53;5061746;28;20408;-74
2023/02/04 01:14:18;;;;;;;12.18;6.20;;;6.90;99.90;;;5.81;100.00;98607.34;5061972;28;20572;-73
2023/02/04 01:16:44;;;;;;;10.48;6.32;;;6.90;99.90;;;5.81;100.00;98609.16;5061396;28;20947;-73
2023/02/04 01:19:10;;;;;;;15.05;7.45;;;6.90;99.90;;;5.77;100.00;98595.59;5060169;28;20880;-73
2023/02/04 01:21:37;;;;;;;12.27;7.50;;;6.80;99.90;;;5.91;100.00;98593.91;5061580;28;20415;-73
2023/02/04 01:24:04;;;;;;;11.93;6.78;;;6.90;99.90;;;5.82;100.00;98587.13;5061397;28;20959;-73
2023/02/04 01:26:30;;;;;;;11.02;6.30;;;6.90;99.90;;;5.77;100.00;98589.53;5060013;28;20508;-72
2023/02/04 01:28:56;;;;;;;11.25;6.15;;;6.80;99.90;;;5.92;100.00;98613.94;5061902;28;20408;-72
2023/02/04 01:31:22;;;;;;;9.87;5.43;;;6.80;99.90;;;5.77;100.00;98611.38;5060738;28;20408;-73
2023/02/04 01:33:48;;;;;;;9.23;5.15;;;6.90;99.90;;;5.74;100.00;98627.50;5060171;28;20898;-74
2023/02/04 01:36:15;;;;;;;11.52;5.00;;;6.80;99.90;;;5.75;100.00;98634.38;5059862;28;20423;-73
2023/02/04 01:38:42;;;;;;;11.13;5.30;;;6.80;99.90;;;5.74;100.00;98629.31;5062884;28;20610;-74
2023/02/04 01:41:08;;;;;;;7.43;4.25;;;6.80;99.90;;;5.76;100.00;98643.06;5061466;28;20415;-75
2023/02/04 01:43:34;;;;;;;12.93;5.23;;;6.80;99.90;;;5.76;100.00;98628.13;5059568;28;20488;-74
2023/02/04 01:46:01;;;;;;;9.43;5.80;;;6.80;99.90;;;5.74;100.00;98638.00;5061025;28;20411;-75
2023/02/04 01:48:27;;;;;;;12.75;6.53;;;6.80;99.90;;;5.70;100.00;98644.66;5061468;28;20420;-74
2023/02/04 01:51:01;;;;;;;11.05;6.20;;;6.80;99.90;;;5.66;100.00;98627.63;5059252;28;20451;-74
2023/02/04 01:53:27;;;;;;;10.80;5.60;;;6.70;99.90;;;5.71;100.00;98641.00;5059806;28;20904;-74
2023/02/04 01:55:54;;;;;;;12.83;5.30;;;6.80;99.90;;;5.66;100.00;98632.06;5052105;28;20453;-73
2023/02/04 01:58:20;;;;;;;13.80;5.13;;;6.70;99.90;;;5.59;100.00;98633.81;5060366;28;20405;-74
2023/02/04 02:00:46;;;;;;;10.97;4.53;;;6.60;99.90;;;5.53;100.00;98634.56;5059574;28;20940;-74
2023/02/04 02:03:12;;;;;;;10.65;4.60;;;6.60;99.90;;;5.51;100.00;98637.38;5060106;28;20395;-73
2023/02/04 02:05:43;;;;;;;17.35;4.18;;;6.50;99.90;;;5.45;100.00;98638.16;5059656;28;20418;-74
2023/02/04 02:08:10;;;;;;;11.60;3.60;;;6.50;99.90;;;5.42;100.00;98634.06;5059434;28;20400;-74
2023/02/04 02:10:38;;;;;;;16.25;4.10;;;6.50;99.90;;;5.37;100.00;98627.75;5061173;28;20404;-73
2023/02/04 02:13:09;;;;;;;14.20;4.03;;;6.50;99.90;;;5.31;100.00;98636.38;5049261;28;20881;-74
2023/02/04 02:15:35;;;;;;;16.60;3.80;;;6.40;99.90;;;5.31;100.00;98639.00;5060983;28;20396;-74
2023/02/04 02:18:02;;;;;;;17.30;4.00;;;6.40;99.90;;;5.40;100.00;98643.97;5050256;28;20421;-74
2023/02/04 02:20:29;;;;;;;15.05;4.07;;;6.40;99.90;;;5.26;100.00;98650.06;5059113;28;20919;-74
2023/02/04 02:23:03;;;;;;;16.33;3.83;;;6.30;99.90;;;5.23;100.00;98652.25;5060597;28;20403;-73
2023/02/04 02:25:31;;;;;;;17.73;3.83;;;6.30;99.90;;;5.43;100.00;98664.59;5060983;28;20961;-73
2023/02/04 02:27:59;;;;;;;20.13;4.38;;;6.40;99.90;;;5.27;100.00;98659.56;5062087;28;20557;-72
2023/02/04 02:30:27;;;;;;;19.05;4.70;;;6.40;99.90;;;5.21;100.00;98649.81;5064010;28;20888;-75
2023/02/04 02:32:53;;;;;;;20.42;5.15;;;6.30;99.90;;;5.32;100.00;98664.28;5066595;28;20880;-72
2023/02/04 02:35:19;;;;;;;24.25;4.35;;;6.30;99.90;;;5.23;100.00;98663.56;5066261;28;20567;-74
2023/02/04 02:37:45;;;;;;;23.75;4.55;;;6.30;99.90;;;5.33;100.00;98671.16;5067105;28;20396;-74
2023/02/04 02:40:12;;;;;;;19.25;4.38;;;6.30;99.90;;;5.34;100.00;98680.63;5065642;28;20422;-74
2023/02/04 02:42:41;;;;;;;18.70;4.18;;;6.40;99.90;;;5.20;100.00;98690.19;5064504;28;20404;-74
2023/02/04 02:45:14;;;;;;;21.45;4.05;;;6.30;99.90;;;5.14;100.00;98688.28;5050858;28;20476;-75
2023/02/04 02:47:40;;;;;;;16.80;4.20;;;6.30;99.90;;;5.14;100.00;98675.16;5060770;28;20399;-74
2023/02/04 02:50:12;;;;;;;14.13;4.70;;;6.20;99.90;;;5.20;100.00;98678.88;5059911;28;20397;-74
2023/02/04 02:52:38;;;;;;;20.58;4.85;;;6.20;99.90;;;5.14;100.00;98667.28;5060403;28;20400;-74
2023/02/04 02:55:11;;;;;;;20.13;4.53;;;6.20;99.90;;;5.10;100.00;98671.31;5059591;28;20398;-74
2023/02/04 02:57:38;;;;;;;20.60;5.40;;;6.20;99.90;;;5.07;100.00;98669.03;5060439;28;20785;-74
2023/02/04 03:00:14;;;;;;;24.65;5.78;;;6.20;99.90;;;5.05;100.00;98671.84;5059542;28;20413;-74
2023/02/04 03:02:42;;;;;;;19.80;5.07;;;6.10;99.90;;;5.13;100.00;98672.72;5060089;28;20407;-75
2023/02/04 03:05:08;;;;;;;23.35;5.63;;;6.20;99.90;;;5.05;100.00;98674.47;5059862;28;20432;-75
2023/02/04 03:07:35;;;;;;;28.93;6.13;;;6.20;99.90;;;5.01;100.00;98664.53;5058117;28;20449;-74
2023/02/04 03:10:01;;;;;;;19.02;5.15;;;6.10;99.90;;;5.05;100.00;98676.28;5059494;28;20399;-74
2023/02/04 03:12:27;;;;;;;27.65;5.55;;;6.10;99.90;;;5.00;100.00;98683.88;5059159;28;20549;-74
2023/02/04 03:14:55;;;;;;;22.70;5.00;;;6.10;99.90;;;4.97;100.00;98698.19;5059870;28;20448;-74
2023/02/04 03:17:21;;;;;;;19.63;5.25;;;6.10;99.90;;;5.00;100.00;98700.44;5058590;28;20425;-75
2023/02/04 03:19:48;;;;;;;26.67;5.95;;;6.10;99.90;;;5.06;100.00;98714.63;5058602;28;20713;-75
2023/02/04 03:22:14;;;;;;;20.83;5.38;;;6.20;99.90;;;5.02;100.00;98714.22;5059879;28;20457;-74
2023/02/04 03:24:40;;;;;;;20.02;5.95;;;6.10;99.90;;;5.00;100.00;98724.06;5058668;28;20398;-75
2023/02/04 03:27:06;;;;;;;23.77;5.93;;;6.20;99.90;;;5.02;100.00;98716.84;5058704;28;20487;-75
2023/02/04 03:29:33;;;;;;;25.02;5.72;;;6.20;99.90;;;5.05;100.00;98731.38;5059805;28;20407;-75
2023/02/04 03:32:01;;;;;;;19.85;5.30;;;6.20;99.90;;;5.05;100.00;98734.81;5057994;28;20484;-76
2023/02/04 03:34:27;;;;;;;25.25;5.85;;;6.20;99.90;;;5.09;100.00;98729.22;5058529;28;20399;-73
2023/02/04 03:36:53;;;;;;;15.43;5.00;;;6.20;99.90;;;5.04;100.00;98721.88;5050418;28;20400;-72
2023/02/04 03:39:19;;;;;;;17.08;4.93;;;6.20;99.90;;;5.13;100.00;98733.09;5058237;28;20413;-75
2023/02/04 03:41:44;;;;;;;15.07;5.87;;;6.20;99.90;;;5.11;100.00;98733.31;5048645;28;20777;-75
2023/02/04 03:44:10;;;;;;;21.58;7.65;;;6.20;99.90;;;4.99;100.00;98740.00;5059754;28;20436;-75
2023/02/04 03:46:36;;;;;;;22.90;7.43;;;6.10;99.90;;;5.16;100.00;98743.25;5048202;28;21060;-74
2023/02/04 03:49:03;;;;;;;30.13;6.90;;;6.20;99.90;;;5.04;100.00;98735.81;5059341;28;20399;-74
2023/02/04 03:51:29;;;;;;;26.27;6.75;;;6.10;99.90;;;5.02;100.00;98739.63;5059394;28;20492;-74
2023/02/04 03:53:55;;;;;;;31.50;7.82;;;6.10;99.90;;;4.98;100.00;98738.34;5048509;28;20397;-75
2023/02/04 03:56:21;;;;;;;35.50;8.75;;;6.10;99.90;;;5.01;100.00;98748.50;5051231;28;20411;-74
2023/02/04 03:58:47;;;;;;;29.85;8.40;;;6.10;99.90;;;4.97;100.00;98741.97;5050051;28;20409;-74
2023/02/04 04:01:13;;;;;;;27.10;6.90;;;6.10;99.90;;;4.98;100.00;98738.34;5061657;28;20415;-75
2023/02/04 04:03:39;;;;;;;30.58;7.75;;;6.10;99.90;;;4.96;100.00;98743.00;5062263;28;20408;-75
2023/02/04 04:06:08;;;;;;;31.13;8.60;;;6.10;99.90;;;4.94;100.00;98751.03;5060768;28;20760;-74
2023/02/04 04:08:34;;;;;;;21.88;6.93;;;6.10;99.90;;;4.92;100.00;98739.09;5049963;28;20402;-74
2023/02/04 04:11:00;;;;;;;31.90;8.13;;;6.10;99.90;;;4.94;100.00;98755.47;5057962;28;20401;-72
2023/02/04 04:13:26;;;;;;;29.40;7.63;;;6.10;99.90;;;4.92;100.00;98744.34;5047460;28;20414;-74
2023/02/04 04:15:52;;;;;;;31.55;7.60;;;6.10;99.90;;;4.94;100.00;98750.22;5059563;28;20789;-75
2023/02/04 04:18:18;;;;;;;20.80;6.55;;;6.10;99.90;;;4.96;100.00;98756.13;5057603;28;20444;-74
2023/02/04 04:20:44;;;;;;;19.73;6.93;;;6.10;99.90;;;4.95;100.00;98757.91;5058435;28;20832;-73
2023/02/04 04:23:11;;;;;;;21.60;5.88;;;6.10;99.90;;;4.99;100.00;98766.22;5058984;28;20409;-74
2023/02/04 04:25:37;;;;;;;20.48;6.57;;;6.10;99.90;;;5.01;100.00;98767.69;5051207;28;20997;-74
2023/02/04 04:28:03;;;;;;;23.98;7.05;;;6.20;99.90;;;5.02;100.00;98763.25;5062087;28;20495;-74
2023/02/04 04:30:29;;;;;;;25.90;7.68;;;6.20;99.90;;;5.11;100.00;98771.84;5061562;28;20395;-73
2023/02/04 04:32:55;;;;;;;35.28;8.88;;;6.20;99.90;;;5.07;100.00;98779.25;5062668;28;20411;-74
2023/02/04 04:35:21;;;;;;;22.55;7.38;;;6.20;99.90;;;5.09;100.00;98784.34;5061819;28;20401;-73
2023/02/04 04:37:47;;;;;;;35.63;8.25;;;6.20;99.90;;;5.05;100.00;98778.63;5052315;28;20403;-74
2023/02/04 04:40:14;;;;;;;22.58;7.75;;;6.20;99.90;;;5.05;100.00;98791.75;5064733;28;20466;-73
2023/02/04 04:42:40;;;;;;;21.23;7.45;;;6.20;99.90;;;5.02;100.00;98786.88;5061392;28;20443;-74
2023/02/04 04:45:09;;;;;;;20.98;7.15;;;6.20;99.90;;;5.00;100.00;98791.47;5062019;28;20938;-74
2023/02/04 04:47:34;;;;;;;26.48;8.02;;;6.10;99.90;;;4.98;100.00;98796.91;5062903;28;20404;-74
2023/02/04 04:52:32;;;;;;;30.67;8.57;;;6.10;99.90;;;5.01;100.00;98791.31;5058832;28;20419;-75
2023/02/04 04:54:58;;;;;;;22.92;8.00;;;6.10;99.90;;;5.01;100.00;98793.94;5053495;28;20419;-77
2023/02/04 04:57:25;;;;;;;27.43;9.40;;;6.10;99.90;;;5.04;100.00;98795.34;5060702;28;20517;-77
2023/02/04 04:59:51;;;;;;;18.63;8.07;;;6.10;99.90;;;5.02;100.00;98790.31;5059864;28;20403;-77
2023/02/04 05:02:17;;;;;;;19.65;8.35;;;6.20;99.90;;;5.01;100.00;98775.56;5040563;28;20393;-77
2023/02/04 05:04:43;;;;;;;30.75;9.52;;;6.10;99.90;;;5.10;100.00;98784.16;5041957;28;20393;-76
2023/02/04 05:07:08;;;;;;;37.72;10.40;;;6.20;99.90;;;5.03;100.00;98785.88;5042167;28;20410;-76
2023/02/04 05:09:34;;;;;;;28.85;9.00;;;6.20;99.90;;;4.96;100.00;98777.09;5040460;28;20920;-75
2023/02/04 05:12:01;;;;;;;28.60;9.70;;;6.10;99.90;;;4.96;100.00;98775.25;5041901;28;20940;-76
2023/02/04 05:14:28;;;;;;;22.67;8.43;;;6.10;99.90;;;5.00;100.00;98784.41;5041217;28;20405;-76
2023/02/04 05:16:54;;;;;;;32.60;9.75;;;6.10;99.90;;;4.96;100.00;98774.47;5042343;28;20405;-76
2023/02/04 05:19:20;;;;;;;28.77;8.90;;;6.10;99.90;;;4.94;100.00;98776.47;5039421;28;20415;-76
2023/02/04 05:21:46;;;;;;;31.98;9.32;;;6.10;99.90;;;4.90;100.00;98785.66;5040666;28;20460;-75
2023/02/04 05:24:15;;;;;;;26.23;8.88;;;6.00;99.90;;;4.88;100.00;98790.31;5038222;28;20443;-74
2023/02/04 05:26:41;;;;;;;31.13;9.52;;;6.00;99.90;;;4.86;100.00;98790.47;5052405;28;20802;-75
2023/02/04 05:29:07;;;;;;;23.95;8.15;;;6.00;99.90;;;4.88;100.00;98785.88;5041915;28;20480;-75
2023/02/04 05:31:34;;;;;;;22.83;8.00;;;6.00;99.90;;;4.89;100.00;98792.72;5041814;28;20789;-76
2023/02/04 05:34:00;;;;;;;41.28;10.80;;;6.00;99.90;;;4.89;100.00;98805.03;5033332;28;20504;-76
2023/02/04 05:36:26;;;;;;;28.47;10.37;;;6.00;99.90;;;4.92;100.00;98804.69;5041554;28;21111;-76
2023/02/04 05:38:52;;;;;;;43.47;11.73;;;6.10;99.90;;;4.90;100.00;98810.09;5040648;28;20535;-76
2023/02/04 05:41:18;;;;;;;32.55;11.10;;;6.00;99.90;;;4.94;100.00;98802.69;5034765;28;20455;-75
2023/02/04 05:43:44;;;;;;;35.87;10.93;;;6.10;99.90;;;4.92;100.00;98813.38;5037404;28;20401;-75
2023/02/04 05:46:10;;;;;;;31.88;10.50;;;6.00;99.90;;;4.92;100.00;98810.75;5040821;28;20493;-75
2023/02/04 05:48:39;;;;;;;41.72;11.43;;;6.00;99.90;;;4.91;100.00;98809.13;5042502;28;20427;-74
2023/02/04 05:51:05;;;;;;;31.73;10.35;;;6.00;99.90;;;4.91;100.00;98821.41;5049093;28;20408;-74
2023/02/04 05:53:30;;;;;;;37.78;11.75;;;6.00;99.90;;;4.94;100.00;98810.56;5057249;28;20405;-75
2023/02/04 05:55:56;;;;;;;38.05;11.88;;;6.10;99.90;;;4.91;100.00;98800.44;5058020;28;20432;-75
2023/02/04 05:58:22;;;;;;;39.80;12.35;;;6.10;99.90;;;4.90;100.00;98811.91;5061052;28;20420;-75
2023/02/04 06:00:48;;;;;;;60.78;13.02;;;6.00;99.90;;;4.87;100.00;98815.72;5058733;28;20896;-75
2023/02/04 06:03:14;;;;;;;48.37;13.53;;;6.00;99.90;;;4.86;100.00;98818.53;5057345;28;20767;-75
2023/02/04 06:05:43;;;;;;;44.30;14.00;;;6.00;99.90;;;4.84;100.00;98825.75;5058513;28;20401;-75
2023/02/04 06:08:09;;;;;;;55.65;13.50;;;6.00;99.90;;;4.80;100.00;98835.81;5060113;28;20423;-75
2023/02/04 06:10:35;;;;;;;37.65;12.77;;;5.90;99.90;;;4.82;100.00;98832.97;5057350;28;20398;-74
2023/02/04 06:13:01;;;;;;;50.35;13.82;;;5.90;99.90;;;4.80;100.00;98838.44;5055572;28;20502;-74
2023/02/04 06:15:27;;;;;;;58.20;14.93;;;6.00;99.90;;;4.81;100.00;98839.25;5059415;28;20404;-74
2023/02/04 06:17:53;;;;;;;51.13;15.10;;;6.00;99.90;;;4.78;100.00;98840.41;5056323;28;20855;-76
2023/02/04 06:20:19;;;;;;;62.30;15.75;;;5.90;99.90;;;4.73;100.00;98848.00;5054266;28;20484;-73
2023/02/04 06:22:50;;;;;;;43.70;13.37;;;5.90;99.90;;;4.72;100.00;98854.22;5052293;28;21063;-74
2023/02/04 06:25:16;;;;;;;62.22;16.67;;;5.90;99.90;;;4.73;100.00;98862.91;5059022;28;20400;-75
2023/02/04 06:27:42;;;;;;;70.53;16.75;;;5.90;99.90;;;4.71;100.00;98860.47;5056810;28;20448;-75
2023/02/04 06:30:10;;;;;;;57.22;15.95;;;5.90;99.90;;;4.67;100.00;98856.56;5059156;28;20400;-75
2023/02/04 06:32:36;;;;;;;53.07;16.63;;;5.80;99.90;;;4.69;100.00;98862.44;5056328;28;20455;-75
2023/02/04 06:35:02;;;;;;;68.65;16.67;;;5.80;99.90;;;4.67;100.00;98859.19;5057442;28;20409;-75
2023/02/04 06:37:28;;;;;;;100.13;21.23;;;5.80;99.90;;;4.61;100.00;98865.13;5053506;28;20515;-75
2023/02/04 06:39:56;;;;;;;74.95;20.33;;;5.70;99.90;;;4.56;100.00;98860.44;5049683;28;20486;-75
2023/02/04 06:42:22;;;;;;;76.15;18.20;;;5.70;99.90;;;4.51;100.00;98865.38;5051279;28;20744;-74
2023/02/04 06:44:48;;;;;;;69.70;19.50;;;5.70;99.90;;;4.52;100.00;98860.94;5060082;28;20433;-75
2023/02/04 06:47:14;;;;;;;73.37;19.67;;;5.70;99.90;;;4.59;100.00;98870.56;5050672;28;20887;-74
2023/02/04 06:49:39;;;;;;;65.53;18.77;;;5.70;99.90;;;4.69;100.00;98880.81;5059036;28;20811;-74
2023/02/04 06:52:12;;;;;;;78.07;19.48;;;5.80;99.90;;;4.76;100.00;98879.09;5051051;28;20519;-75
2023/02/04 06:54:38;;;;;;;65.15;19.33;;;5.90;99.90;;;4.73;100.00;98874.22;5062523;28;20404;-74
2023/02/04 06:57:05;;;;;;;92.20;20.80;;;5.90;99.90;;;4.68;100.00;98882.59;5057876;28;22057;-73
2023/02/04 06:59:32;;;;;;;74.05;18.77;;;5.80;99.90;;;4.68;100.00;98893.09;5053043;28;20415;-74
2023/02/04 07:01:58;;;;;;;73.25;19.85;;;5.80;99.90;;;4.66;100.00;98889.84;5054576;28;20931;-74
2023/02/04 07:04:24;;;;;;;75.47;19.67;;;5.80;99.90;;;4.66;100.00;98904.78;5056442;28;20458;-74
2023/02/04 07:06:50;;;;;;;73.55;19.13;;;5.80;99.90;;;4.65;100.00;98896.09;5055332;28;20428;-74
2023/02/04 07:09:16;;;;;;;79.25;19.25;;;5.80;99.90;;;4.63;100.00;98905.94;5055849;28;20405;-73
2023/02/04 07:11:42;;;;;;;78.33;18.23;;;5.80;99.90;;;4.63;100.00;98899.88;5035292;28;20763;-74
2023/02/04 07:14:09;;;;;;;63.05;16.50;;;5.80;99.90;;;4.65;100.00;98908.38;5055009;28;20443;-73
2023/02/04 07:16:35;;;;;;;86.00;18.73;;;5.80;99.90;;;4.67;100.00;98907.19;5037395;28;20468;-73
2023/02/04 07:19:01;;;;;;;75.93;19.95;;;5.80;99.90;;;4.70;100.00;98907.84;5039650;28;20413;-74
2023/02/04 07:21:27;;;;;;;78.32;19.45;;;5.80;99.90;;;4.73;100.00;98921.44;5058494;28;20787;-74
2023/02/04 07:23:53;;;;;;;90.17;21.47;;;5.80;99.90;;;4.71;100.00;98936.53;5056041;28;20406;-75
2023/02/04 07:26:19;;;;;;;71.43;18.40;;;5.80;99.90;;;4.73;100.00;98944.22;5055224;28;20416;-74
2023/02/04 07:28:44;;;;;;;75.72;20.35;;;5.80;99.90;;;4.67;100.00;98946.53;5048880;28;20459;-73
2023/02/04 07:31:12;;;;;;;86.53;20.07;;;5.80;99.90;;;4.69;100.00;98935.88;5043616;28;20409;-73
2023/02/04 07:33:38;;;;;;;76.03;19.48;;;5.80;99.90;;;4.77;100.00;98933.19;5047934;28;20424;-74
2023/02/04 07:36:04;;;;;;;89.32;20.40;;;5.90;99.90;;;4.76;100.00;98934.19;5046638;28;20405;-75
2023/02/04 07:38:30;;;;;;;89.65;21.73;;;5.90;99.90;;;4.69;100.00;98935.88;5045251;28;20987;-76
2023/02/04 07:40:56;;;;;;;77.85;20.00;;;5.80;99.90;;;4.71;100.00;98940.97;5043449;28;20429;-74
2023/02/04 07:43:22;;;;;;;81.97;18.52;;;5.80;99.90;;;4.66;100.00;98949.38;5040813;28;20478;-74
2023/02/04 07:45:48;;;;;;;82.80;19.00;;;5.80;99.90;;;4.68;100.00;98947.38;5043311;28;20576;-74
2023/02/04 07:48:15;;;;;;;75.43;18.95;;;5.80;99.90;;;4.66;100.00;98949.38;5042216;28;20445;-74
2023/02/04 07:50:41;;;;;;;62.90;17.13;;;5.80;99.90;;;4.72;100.00;98948.66;5044315;28;20428;-73
2023/02/04 07:53:07;;;;;;;63.83;16.77;;;5.80;99.90;;;4.66;100.00;98950.16;5046961;28;20402;-74
2023/02/04 07:55:34;;;;;;;79.85;19.17;;;5.80;99.90;;;4.64;100.00;98940.84;5048516;28;20762;-73
2023/02/04 07:57:59;;;;;;;89.18;19.17;;;5.80;99.90;;;4.66;100.00;98949.38;5042257;28;20421;-74
2023/02/04 08:00:25;;;;;;;85.80;18.48;;;5.80;99.90;;;4.68;100.00;98963.91;5046954;28;20834;-74
2023/02/04 08:02:51;;;;;;;74.33;16.90;;;5.80;99.90;;;4.69;100.00;98967.34;5052026;28;20448;-74
2023/02/04 08:05:18;;;;;;;78.40;18.00;;;5.80;99.90;;;4.72;100.00;98979.31;5052609;28;20407;-74
2023/02/04 08:07:44;;;;;;;78.87;18.17;;;5.90;99.90;;;4.78;100.00;98978.63;5051705;28;20917;-74
2023/02/04 08:10:11;;;;;;;81.47;18.42;;;5.90;99.90;;;4.79;100.00;98985.50;5052394;28;20439;-74
2023/02/04 08:12:37;;;;;;;77.30;18.67;;;5.90;99.90;;;4.79;100.00;98983.69;5050181;28;20397;-74
2023/02/04 08:15:06;;;;;;;76.97;18.13;;;5.90;99.90;;;4.80;100.00;98980.09;5047134;28;20496;-74
2023/02/04 08:17:32;;;;;;;71.43;17.80;;;5.90;99.90;;;4.82;100.00;98977.25;5048266;28;20409;-73
2023/02/04 08:19:58;;;;;;;67.15;18.80;;;6.00;99.90;;;4.89;100.00;98984.25;5052074;28;20744;-74
2023/02/04 08:22:25;;;;;;;85.45;19.88;;;6.00;99.90;;;4.90;100.00;98979.81;5051773;28;20887;-73
2023/02/04 08:24:51;;;;;;;52.78;15.77;;;6.00;99.90;;;4.96;100.00;98989.66;5051265;28;20413;-73
2023/02/04 08:27:17;;;;;;;87.72;19.80;;;6.10;99.90;;;4.99;100.00;98994.53;5048176;28;20475;-75
2023/02/04 08:29:43;;;;;;;66.40;16.97;;;6.10;99.90;;;5.05;100.00;98994.63;5051398;28;20429;-75
2023/02/04 08:32:09;;;;;;;90.75;20.58;;;6.20;99.90;;;5.07;100.00;98994.47;5051890;28;20820;-75
2023/02/04 08:34:34;;;;;;;85.90;20.52;;;6.20;99.90;;;5.09;100.00;99000.34;5052268;28;20488;-74
2023/02/04 08:37:00;;;;;;;79.70;18.55;;;6.20;99.90;;;5.13;100.00;99009.50;5050204;28;20436;-73
2023/02/04 08:39:28;;;;;;;68.40;17.83;;;6.20;99.90;;;5.19;100.00;99010.63;5036302;28;20417;-74
2023/02/04 08:41:54;;;;;;;77.27;18.37;;;6.30;99.90;;;5.26;100.00;99003.66;5043214;28;20424;-75
2023/02/04 08:44:20;;;;;;;57.65;16.05;;;6.30;99.90;;;5.32;100.00;98998.53;5051160;28;20495;-74
2023/02/04 08:46:46;;;;;;;66.78;16.67;;;6.40;99.90;;;5.38;100.00;99000.44;5047715;28;20790;-75
2023/02/04 08:49:12;;;;;;;63.30;16.77;;;6.50;99.90;;;5.47;100.00;99010.88;5048024;28;20452;-76
2023/02/04 08:51:37;;;;;;;72.60;17.83;;;6.60;99.90;;;5.63;100.00;99000.22;5050221;28;20409;-75
2023/02/04 08:54:03;;;;;;;57.95;15.88;;;6.70;99.90;;;5.71;100.00;99016.69;5048984;28;20413;-77
2023/02/04 08:56:31;;;;;;;57.42;14.48;;;6.80;99.90;;;5.78;100.00;99020.25;5051070;28;20444;-74
2023/02/04 08:58:56;;;;;;;61.20;14.35;;;6.80;99.90;;;5.87;100.00;99028.00;5048172;28;20484;-74
2023/02/04 09:01:22;;;;;;;46.33;13.18;;;6.90;99.90;;;5.99;100.00;99026.63;5037023;28;20508;-74
2023/02/04 09:03:48;;;;;;;54.83;14.00;;;7.00;99.90;;;6.02;100.00;99034.94;5051720;28;20410;-73
2023/02/04 09:06:14;;;;;;;54.00;14.47;;;7.10;99.90;;;6.08;100.00;99033.41;5050702;28;20827;-74
2023/02/04 09:08:40;;;;;;;54.58;14.32;;;7.10;99.90;;;6.10;100.00;99034.03;5046671;28;20410;-74
2023/02/04 09:11:09;;;;;;;33.15;11.27;;;7.20;99.90;;;6.14;100.00;99035.31;5047934;28;20425;-74
2023/02/04 09:13:36;;;;;;;47.97;13.30;;;7.20;99.90;;;6.10;100.00;99045.38;5048037;28;20922;-73
2023/02/04 09:16:03;;;;;;;45.08;13.07;;;7.20;99.90;;;6.02;100.00;99044.63;5050988;28;20675;-75
2023/02/04 09:18:31;;;;;;;48.72;12.43;;;7.10;99.90;;;5.92;100.00;99049.38;5049224;28;20422;-73
2023/02/04 09:20:57;;;;;;;44.83;12.55;;;7.10;99.90;;;5.87;100.00;99046.41;5044272;28;21002;-74
2023/02/04 09:23:24;;;;;;;49.55;12.95;;;7.00;99.90;;;5.88;100.00;99045.44;5042303;28;20471;-74
2023/02/04 09:25:50;;;;;;;50.50;13.30;;;7.00;99.90;;;5.93;100.00;99046.56;5045734;28;20453;-74
2023/02/04 09:28:16;;;;;;;50.03;11.88;;;7.00;99.90;;;6.00;100.00;99051.91;5048836;28;20777;-75
2023/02/04 09:30:45;;;;;;;33.60;10.95;;;7.10;99.90;;;6.04;100.00;99061.06;5045355;28;20413;-75
2023/02/04 09:33:13;;;;;;;52.67;11.48;;;7.10;99.90;;;6.12;100.00;99060.97;5044708;28;20416;-75
2023/02/04 09:35:39;;;;;;;40.60;10.82;;;7.10;99.90;;;6.14;100.00;99056.34;5044405;28;20484;-77
2023/02/04 09:38:05;;;;;;;40.33;10.23;;;7.20;99.90;;;6.11;100.00;99060.16;5049021;28;20444;-76
2023/02/04 09:40:39;;;;;;;44.63;10.25;;;7.20;99.90;;;6.18;100.00;99060.22;5047315;28;20444;-77
2023/02/04 09:43:06;;;;;;;45.92;10.52;;;7.20;99.90;;;6.13;100.00;99068.69;5049662;28;20405;-74
2023/02/04 09:45:35;;;;;;;30.23;10.20;;;7.20;99.90;;;6.30;100.00;99071.94;5050769;28;20401;-74
2023/02/04 09:48:05;;;;;;;33.85;8.65;;;7.30;99.90;;;6.29;100.00;99072.13;5050650;28;20526;-74
2023/02/04 09:50:32;;;;;;;34.38;7.72;;;7.30;99.90;;;6.32;100.00;99077.81;5048051;28;20425;-74
2023/02/04 09:53:01;;;;;;;36.65;7.93;;;7.40;99.90;;;6.39;100.00;99085.81;5049242;28;20502;-74
2023/02/04 09:55:33;;;;;;;22.13;6.32;;;7.40;99.90;;;6.47;100.00;99090.94;5046200;28;20417;-74
2023/02/04 09:57:59;;;;;;;22.92;6.78;;;7.50;99.90;;;6.58;100.00;99080.78;5042294;28;20406;-74
2023/02/04 10:00:28;;;;;;;28.33;7.18;;;7.60;99.90;;;6.67;100.00;99078.88;5048529;28;20966;-73
2023/02/04 10:02:56;;;;;;;21.85;6.25;;;7.70;99.90;;;6.77;100.00;99076.75;5050142;28;20394;-73
2023/02/04 10:05:45;;;;;;;31.77;6.30;;;7.80;99.90;;;6.74;100.00;99071.06;5046903;28;20413;-74
2023/02/04 10:08:39;;;;;;;19.48;5.15;;;7.80;99.90;;;6.64;100.00;99079.25;5045632;28;20397;-74
2023/02/04 10:11:08;;;;;;;24.08;4.93;;;7.70;99.90;;;6.59;100.00;99076.34;5040415;28;20421;-74
2023/02/04 10:13:37;;;;;;;23.25;5.28;;;7.60;99.90;;;6.53;100.00;99082.34;5046357;28;20447;-74
2023/02/04 10:16:13;;;;;;;35.78;5.90;;;7.60;99.90;;;6.36;100.00;99078.28;5041002;28;20432;-74
2023/02/04 10:18:40;;;;;;;28.63;5.28;;;7.40;99.90;;;6.30;100.00;99087.72;5044881;28;20394;-74